Saranac Lake, NY

6:28 AM EDT on June 03, 2015 (GMT -0400)
North Country Community College | | Change Station
CLOSE
Current Station
Personal Weather Station
Location: Saranac Lake, NY
Elevation: 1600 ft
Nearby Weather Stations

Elev 1600 ft 44.32 °N, 74.12 °W | Updated 10 seconds ago

Overcast
Overcast
38.4 °F
Feels Like 38 °F
N
0.0
Wind Variable Wind from East
Gusts 0.0 mph

Today
High -- | Low -- °F
--% Chance of Precip.
Yesterday
High -- | Low -- °F
Precip. -- in
5:14 AM 8:35 PM
Full, 99% visible
Pressure 30.27 in
Visibility 0.2 miles
Clouds
Windchill 38 °F
Dew Point 38 °F
Humidity 100%
Rainfall 0.00 in
Snow Depth Not available.
UV Not available.
Pollen 5.20 out of 12
Air Quality Not available.
Flu Activity Sporadic
METAR KSLK 030951Z AUTO 00000KT 1/4SM FG VV002 01/01 A3024 RMK AO2 SLP251 T00110011

More Conditions Fewer Conditions

Pressure 30.27 in
Visibility 0.2 miles
Clouds
Windchill 38 °F
Dew Point 38 °F
Humidity 100%
Rainfall 0.00 in
Snow Depth Not available.
UV Not available.
Pollen 5.20 out of 12
Air Quality Not available.
Flu Activity Sporadic
METAR KSLK 030951Z AUTO 00000KT 1/4SM FG VV002 01/01 A3024 RMK AO2 SLP251 T00110011

More Conditions Fewer Conditions

10-Day Weather Forecast

×

Almanac

Astronomy

Jun. 03, 2015 Rise Set
Actual Time
Civil Twilight
Nautical Twilight
Astronomical Twilight
Moon
Length of Visible Light
Length of Day
Tomorrow will be .
, % of the Moon is Illuminated

Today's Extremes

State Highs State Lows

Community

WunderPhotos

Upload Photos

1,826,198 photos uploaded!

WunderBlogs® & News

Nearby

Air Quality

  Air Quality AQ Index Pollutant
Not available.

Snow Depth

Station Depth Elevation

Earthquake Activity

City Distance Mag. Time & Date
Minimum magnitude displayed is 2.5.

Coastal Water Temperatures

Place Temperature

Stations

Nearby Weather Stations

Station Location Temp. Windchill Dew Point Humidity Wind Precip. Elev Updated Type